createdAt,value
2017-11-05T00:00:39.741Z,15.51
2017-11-05T00:01:20.166Z,15.56
2017-11-05T00:02:00.539Z,15.51
2017-11-05T00:02:40.916Z,15.56
2017-11-05T00:03:21.283Z,15.52
2017-11-05T00:04:01.799Z,15.53
2017-11-05T00:04:42.415Z,15.48
2017-11-05T00:05:22.924Z,15.58
2017-11-05T00:06:03.260Z,15.49
2017-11-05T00:06:43.702Z,15.64
2017-11-05T00:07:24.057Z,15.59
2017-11-05T00:08:04.566Z,15.46
2017-11-05T00:08:45.001Z,15.51
2017-11-05T00:09:25.421Z,15.53
2017-11-05T00:10:05.787Z,15.49
2017-11-05T00:10:46.324Z,15.38
2017-11-05T00:11:26.702Z,15.41
2017-11-05T00:12:07.118Z,15.41
2017-11-05T00:12:47.662Z,15.35
2017-11-05T00:13:28.164Z,15.41
2017-11-05T00:14:08.636Z,15.49
2017-11-05T00:14:49.047Z,15.48
2017-11-05T00:15:29.566Z,15.56
2017-11-05T00:16:10.024Z,15.62
2017-11-05T00:16:50.397Z,15.53
2017-11-05T00:17:30.838Z,15.51
2017-11-05T00:18:11.260Z,15.46
2017-11-05T00:18:51.635Z,15.38
2017-11-05T00:19:32.052Z,15.41
2017-11-05T00:20:12.421Z,15.37
2017-11-05T00:20:52.882Z,15.33
2017-11-05T00:21:33.239Z,15.41
2017-11-05T00:22:13.700Z,15.41
2017-11-05T00:22:55.006Z,15.3
2017-11-05T00:23:35.426Z,15.41
2017-11-05T00:24:15.826Z,15.35
2017-11-05T00:24:56.275Z,15.34
2017-11-05T00:25:36.731Z,15.44
2017-11-05T00:26:17.074Z,15.35
2017-11-05T00:26:57.503Z,15.49
2017-11-05T00:27:37.833Z,15.41
2017-11-05T00:28:18.293Z,15.46
2017-11-05T00:28:58.735Z,15.34
2017-11-05T00:29:39.195Z,15.4
2017-11-05T00:30:19.626Z,15.41
2017-11-05T00:31:00.033Z,15.41
2017-11-05T00:31:40.448Z,15.44
2017-11-05T00:32:20.848Z,15.46
2017-11-05T00:33:01.268Z,15.46
2017-11-05T00:33:41.632Z,15.52
2017-11-05T00:34:22.091Z,15.49
2017-11-05T00:35:02.500Z,15.44
2017-11-05T00:35:42.929Z,15.41
2017-11-05T00:36:23.300Z,15.44
2017-11-05T00:37:03.734Z,15.41
2017-11-05T00:37:44.162Z,15.44
2017-11-05T00:38:24.572Z,15.41
2017-11-05T00:39:04.974Z,15.33
2017-11-05T00:39:45.369Z,15.35
2017-11-05T00:40:25.857Z,15.31
2017-11-05T00:41:06.618Z,15.31
2017-11-05T00:41:47.106Z,15.19
2017-11-05T00:42:27.528Z,15.34
2017-11-05T00:43:07.847Z,15.2
2017-11-05T00:43:48.310Z,15.18
2017-11-05T00:44:28.630Z,15.2
2017-11-05T00:45:09.136Z,15.22
2017-11-05T00:45:49.406Z,15.16
2017-11-05T00:46:29.940Z,15.19
2017-11-05T00:47:10.433Z,15.27
2017-11-05T00:47:50.781Z,15.15
2017-11-05T00:48:31.138Z,15.15
2017-11-05T00:49:11.537Z,15.09
2017-11-05T00:49:51.942Z,15.16
2017-11-05T00:50:32.298Z,15.16
2017-11-05T00:51:12.749Z,15.19
2017-11-05T00:51:53.222Z,15.18
2017-11-05T00:52:33.706Z,15.13
2017-11-05T00:53:14.290Z,15.19
2017-11-05T00:53:54.714Z,15.22
2017-11-05T00:54:35.075Z,15.15
2017-11-05T00:55:15.513Z,15.15
2017-11-05T00:55:55.922Z,15.16
2017-11-05T00:56:36.328Z,15.16
2017-11-05T00:57:16.754Z,15.2
2017-11-05T00:57:57.173Z,15.18
2017-11-05T00:58:37.592Z,15.23
2017-11-05T00:59:18.072Z,15.12
2017-11-05T00:59:58.588Z,15.15
2017-11-05T01:00:39.013Z,15.13
2017-11-05T01:01:19.475Z,15.16
2017-11-05T01:01:59.942Z,15.25
2017-11-05T01:02:40.287Z,15.18
2017-11-05T01:03:20.730Z,15.19
2017-11-05T01:04:01.134Z,15.28
2017-11-05T01:04:41.628Z,15.33
2017-11-05T01:05:21.981Z,15.35
2017-11-05T01:06:02.427Z,15.37
2017-11-05T01:06:42.949Z,15.41
2017-11-05T01:07:23.280Z,15.44
2017-11-05T01:08:03.716Z,15.37
2017-11-05T01:08:44.077Z,15.41
2017-11-05T01:09:24.604Z,15.43
2017-11-05T01:10:04.916Z,15.41
2017-11-05T01:10:45.321Z,15.33
2017-11-05T01:11:25.805Z,15.2
2017-11-05T01:12:06.203Z,15.12
2017-11-05T01:12:46.775Z,15.01
2017-11-05T01:13:27.334Z,15.01
2017-11-05T01:14:07.914Z,14.97
2017-11-05T01:14:48.314Z,14.93
2017-11-05T01:15:28.816Z,14.74
2017-11-05T01:16:09.434Z,14.69
2017-11-05T01:16:49.819Z,14.6
2017-11-05T01:17:30.251Z,14.64
2017-11-05T01:18:10.715Z,14.53
2017-11-05T01:18:53.305Z,14.49
2017-11-05T01:19:33.846Z,14.46
2017-11-05T01:20:14.180Z,14.48
2017-11-05T01:20:54.637Z,14.46
2017-11-05T01:21:35.061Z,14.46
2017-11-05T01:22:15.444Z,14.44
2017-11-05T01:22:55.938Z,14.41
2017-11-05T01:23:36.465Z,14.41
2017-11-05T01:24:16.755Z,14.39
2017-11-05T01:24:57.217Z,14.41
2017-11-05T01:25:37.776Z,14.3
2017-11-05T01:26:18.135Z,14.21
2017-11-05T01:26:58.689Z,14.38
2017-11-05T01:27:39.055Z,14.29
2017-11-05T01:28:19.541Z,14.2
2017-11-05T01:29:00.003Z,14.21
2017-11-05T01:29:40.373Z,14.26
2017-11-05T01:30:20.762Z,14.21
2017-11-05T01:31:01.111Z,14.23
2017-11-05T01:31:41.568Z,14.23
2017-11-05T01:32:21.982Z,14.29
2017-11-05T01:33:02.523Z,14.26
2017-11-05T01:33:42.916Z,14.38
2017-11-05T01:34:23.490Z,14.35
2017-11-05T01:35:03.951Z,14.27
2017-11-05T01:35:44.308Z,14.31
2017-11-05T01:36:24.860Z,14.29
2017-11-05T01:37:05.261Z,14.27
2017-11-05T01:37:45.758Z,14.06
2017-11-05T01:38:26.170Z,14.16
2017-11-05T01:39:06.596Z,14.17
2017-11-05T01:39:46.991Z,14.12
2017-11-05T01:40:27.494Z,14.11
2017-11-05T01:41:08.025Z,14.08
2017-11-05T01:41:48.431Z,14.11
2017-11-05T01:42:28.894Z,14.05
2017-11-05T01:43:09.387Z,14.05
2017-11-05T01:43:49.846Z,14.13
2017-11-05T01:44:30.192Z,14.16
2017-11-05T01:45:10.637Z,14.12
2017-11-05T01:45:51.135Z,14.11
2017-11-05T01:46:31.477Z,14.12
2017-11-05T01:47:11.975Z,14.12
2017-11-05T01:47:52.332Z,14.16
2017-11-05T01:48:32.753Z,14.11
2017-11-05T01:49:13.164Z,14.13
2017-11-05T01:49:53.570Z,14.09
2017-11-05T01:50:34.036Z,14.16
2017-11-05T01:51:14.405Z,13.99
2017-11-05T01:51:54.969Z,14.06
2017-11-05T01:52:35.490Z,14.11
2017-11-05T01:53:15.955Z,14.08
2017-11-05T01:53:56.326Z,14.11
2017-11-05T01:54:36.808Z,14.01
2017-11-05T01:55:17.232Z,14.01
2017-11-05T01:55:57.746Z,14.06
2017-11-05T01:56:38.132Z,14.04
2017-11-05T01:57:18.492Z,14.06
2017-11-05T01:57:58.886Z,14.08
2017-11-05T01:58:39.410Z,14.05
2017-11-05T01:59:19.847Z,14.05
2017-11-05T02:00:00.297Z,14.05
2017-11-05T02:00:40.719Z,14.05
2017-11-05T02:01:21.027Z,14.01
2017-11-05T02:02:01.713Z,14.04
2017-11-05T02:02:42.072Z,13.99
2017-11-05T02:03:22.467Z,13.96
2017-11-05T02:04:02.972Z,13.94
2017-11-05T02:04:43.342Z,13.94
2017-11-05T02:05:23.796Z,13.96
2017-11-05T02:06:04.262Z,13.91
2017-11-05T02:06:44.999Z,13.93
2017-11-05T02:07:25.142Z,13.93
2017-11-05T02:08:05.500Z,13.98
2017-11-05T02:08:45.936Z,13.96
2017-11-05T02:09:26.320Z,13.87
2017-11-05T02:10:06.879Z,13.96
2017-11-05T02:10:47.197Z,13.93
2017-11-05T02:11:27.672Z,13.96
2017-11-05T02:12:08.147Z,13.99
2017-11-05T02:12:48.507Z,13.98
2017-11-05T02:13:28.979Z,14.01
2017-11-05T02:14:09.618Z,14.01
2017-11-05T02:14:49.930Z,14.04
2017-11-05T02:15:30.337Z,14.01
2017-11-05T02:16:10.941Z,14.12
2017-11-05T02:16:51.366Z,14.11
2017-11-05T02:17:31.810Z,14.09
2017-11-05T02:18:12.219Z,14.11
2017-11-05T02:18:52.651Z,14.12
2017-11-05T02:19:32.984Z,14.11
2017-11-05T02:20:13.379Z,14.16
2017-11-05T02:20:53.863Z,14.17
2017-11-05T02:21:34.328Z,14.12
2017-11-05T02:22:14.690Z,14.11
2017-11-05T02:22:55.161Z,14.09
2017-11-05T02:23:35.537Z,14.17
2017-11-05T02:24:15.991Z,14.17
2017-11-05T02:24:56.360Z,14.16
2017-11-05T02:25:36.842Z,14.16
2017-11-05T02:26:17.189Z,14.19
2017-11-05T02:26:57.604Z,14.2
2017-11-05T02:27:38.069Z,14.2
2017-11-05T02:28:18.435Z,14.27
2017-11-05T02:28:58.873Z,14.19
2017-11-05T02:29:39.330Z,14.16
2017-11-05T02:30:19.690Z,14.21
2017-11-05T02:31:00.098Z,14.26
2017-11-05T02:31:40.537Z,14.24
2017-11-05T02:32:20.970Z,14.2
2017-11-05T02:33:01.351Z,14.23
2017-11-05T02:33:41.701Z,14.29
2017-11-05T02:34:22.097Z,14.29
2017-11-05T02:35:02.804Z,14.34
2017-11-05T02:35:43.226Z,14.31
2017-11-05T02:36:23.761Z,14.36
2017-11-05T02:37:04.213Z,14.41
2017-11-05T02:37:44.605Z,14.35
2017-11-05T02:38:24.966Z,14.35
2017-11-05T02:39:05.383Z,14.38
2017-11-05T02:39:45.895Z,14.38
2017-11-05T02:40:26.259Z,14.35
2017-11-05T02:41:06.767Z,14.35
2017-11-05T02:41:47.284Z,14.31
2017-11-05T02:42:27.789Z,14.36
2017-11-05T02:43:08.212Z,14.26
2017-11-05T02:43:48.591Z,14.19
2017-11-05T02:44:29.082Z,14.31
2017-11-05T02:45:09.533Z,14.21
2017-11-05T02:45:49.954Z,14.2
2017-11-05T02:46:30.431Z,14.23
2017-11-05T02:47:10.781Z,14.16
2017-11-05T02:47:51.204Z,14.23
2017-11-05T02:48:31.592Z,14.27
2017-11-05T02:49:12.003Z,14.21
2017-11-05T02:49:52.495Z,14.23
2017-11-05T02:50:32.819Z,14.26
2017-11-05T02:51:13.279Z,14.29
2017-11-05T02:51:53.668Z,14.29
2017-11-05T02:52:34.124Z,14.21
2017-11-05T02:53:14.556Z,14.27
2017-11-05T02:53:54.990Z,14.27
2017-11-05T02:54:35.296Z,14.24
2017-11-05T02:55:15.705Z,14.31
2017-11-05T02:55:56.234Z,14.23
2017-11-05T02:56:36.744Z,14.3
2017-11-05T02:57:17.193Z,14.27
2017-11-05T02:57:57.633Z,14.27
2017-11-05T02:58:38.048Z,14.34
2017-11-05T02:59:18.447Z,14.26
2017-11-05T02:59:58.807Z,14.2
2017-11-05T03:00:39.350Z,14.2
2017-11-05T03:01:19.823Z,14.2
2017-11-05T03:02:00.239Z,14.19
2017-11-05T03:02:40.594Z,14.35
2017-11-05T03:03:21.139Z,14.24
2017-11-05T03:04:01.498Z,14.34
2017-11-05T03:04:41.983Z,14.27
2017-11-05T03:05:22.382Z,14.31
2017-11-05T03:06:02.719Z,14.26
2017-11-05T03:06:43.268Z,14.29
2017-11-05T03:07:23.823Z,14.29
2017-11-05T03:08:04.439Z,14.3
2017-11-05T03:08:44.812Z,14.27
2017-11-05T03:09:25.263Z,14.3
2017-11-05T03:10:05.617Z,14.3
2017-11-05T03:10:46.169Z,14.39
2017-11-05T03:11:26.609Z,14.36
2017-11-05T03:12:07.038Z,14.29
2017-11-05T03:12:47.584Z,14.38
2017-11-05T03:13:27.959Z,14.35
2017-11-05T03:14:08.349Z,14.35
2017-11-05T03:14:48.710Z,14.3
2017-11-05T03:15:29.178Z,14.3
2017-11-05T03:16:09.549Z,14.41
2017-11-05T03:16:49.933Z,14.38
2017-11-05T03:17:30.444Z,14.34
2017-11-05T03:18:10.779Z,14.31
2017-11-05T03:18:51.192Z,14.29
2017-11-05T03:19:31.564Z,14.39
2017-11-05T03:20:12.040Z,14.31
2017-11-05T03:20:52.412Z,14.23
2017-11-05T03:21:32.835Z,14.16
2017-11-05T03:22:13.232Z,14.24
2017-11-05T03:22:53.665Z,14.16
2017-11-05T03:23:34.109Z,14.17
2017-11-05T03:24:14.558Z,14.24
2017-11-05T03:24:54.874Z,14.24
2017-11-05T03:25:35.307Z,14.35
2017-11-05T03:26:15.772Z,14.36
2017-11-05T03:26:56.156Z,14.38
2017-11-05T03:27:36.602Z,14.31
2017-11-05T03:28:17.009Z,14.26
2017-11-05T03:28:57.435Z,14.35
2017-11-05T03:29:37.884Z,14.44
2017-11-05T03:30:18.228Z,14.38
2017-11-05T03:30:58.678Z,14.38
2017-11-05T03:31:39.146Z,14.41
2017-11-05T03:32:19.588Z,14.44
2017-11-05T03:33:00.039Z,14.42
2017-11-05T03:33:40.382Z,14.41
2017-11-05T03:34:21.004Z,14.42
2017-11-05T03:35:01.465Z,14.35
2017-11-05T03:35:41.854Z,14.42
2017-11-05T03:36:22.285Z,14.3
2017-11-05T03:37:02.753Z,14.44
2017-11-05T03:37:43.294Z,14.39
2017-11-05T03:38:23.519Z,14.29
2017-11-05T03:39:03.953Z,14.34
2017-11-05T03:39:44.333Z,14.3
2017-11-05T03:40:24.927Z,14.23
2017-11-05T03:41:05.174Z,14.24
2017-11-05T03:41:45.688Z,14.23
2017-11-05T03:42:26.063Z,14.19
2017-11-05T03:43:06.426Z,14.26
2017-11-05T03:43:46.855Z,14.26
2017-11-05T03:44:27.348Z,14.31
2017-11-05T03:45:07.788Z,14.34
2017-11-05T03:45:48.389Z,14.36
2017-11-05T03:46:28.949Z,14.31
2017-11-05T03:47:09.337Z,14.35
2017-11-05T03:47:49.913Z,14.27
2017-11-05T03:48:30.324Z,14.42
2017-11-05T03:49:10.588Z,14.38
2017-11-05T03:49:50.949Z,14.42
2017-11-05T03:50:31.460Z,14.36
2017-11-05T03:51:11.814Z,14.39
2017-11-05T03:51:52.300Z,14.31
2017-11-05T03:52:32.681Z,14.41
2017-11-05T03:53:13.144Z,14.3
2017-11-05T03:53:53.567Z,14.31
2017-11-05T03:54:33.947Z,14.26
2017-11-05T03:55:14.397Z,14.26
2017-11-05T03:55:54.873Z,14.17
2017-11-05T03:56:35.231Z,14.24
2017-11-05T03:57:15.651Z,14.2
2017-11-05T03:57:56.099Z,14.31
2017-11-05T03:58:36.539Z,14.39
2017-11-05T03:59:16.971Z,14.39
2017-11-05T03:59:57.474Z,14.36
2017-11-05T04:00:37.982Z,14.29
2017-11-05T04:01:18.364Z,14.34
2017-11-05T04:01:58.760Z,14.38
2017-11-05T04:02:39.219Z,14.29
2017-11-05T04:40:20.760Z,13.06
2017-11-05T04:41:13.190Z,13.03
2017-11-05T04:41:53.889Z,13.06
2017-11-05T04:42:34.564Z,12.99
2017-11-05T04:43:15.003Z,12.94
2017-11-05T04:43:55.532Z,12.98
2017-11-05T04:44:35.840Z,12.95
2017-11-05T04:45:17.056Z,12.96
2017-11-05T04:45:57.545Z,12.87
2017-11-05T04:46:38.036Z,12.8
2017-11-05T04:47:18.249Z,12.81
2017-11-05T04:47:59.110Z,12.8
2017-11-05T04:48:39.607Z,12.88
2017-11-05T04:49:19.981Z,12.76
2017-11-05T04:50:00.392Z,12.8
2017-11-05T04:50:41.142Z,12.79
2017-11-05T04:51:21.528Z,12.77
2017-11-05T04:52:02.134Z,12.79
2017-11-05T04:52:43.242Z,12.79
2017-11-05T04:53:23.625Z,12.76
2017-11-05T04:54:03.918Z,12.73
2017-11-05T04:54:44.274Z,12.7
2017-11-05T04:55:25.122Z,12.73
2017-11-05T04:56:06.613Z,12.76
2017-11-05T04:56:46.999Z,12.73
2017-11-05T04:57:27.515Z,12.71
2017-11-05T04:58:09.088Z,12.71
2017-11-05T04:58:49.605Z,12.74
2017-11-05T04:59:30.297Z,12.69
2017-11-05T05:00:10.770Z,12.54
2017-11-05T05:00:51.160Z,12.58
2017-11-05T05:01:31.751Z,12.55
2017-11-05T05:02:12.216Z,12.59
2017-11-05T05:02:52.619Z,12.58
2017-11-05T05:03:32.982Z,12.67
2017-11-05T05:04:13.403Z,12.79
2017-11-05T05:04:53.785Z,12.71
2017-11-05T05:05:34.196Z,12.74
2017-11-05T05:06:14.654Z,12.67
2017-11-05T05:06:55.184Z,12.67
2017-11-05T05:07:35.636Z,12.66
2017-11-05T05:08:16.124Z,12.58
2017-11-05T05:08:57.279Z,12.62
2017-11-05T05:09:37.921Z,12.62
2017-11-05T05:10:18.437Z,12.63
2017-11-05T05:10:59.016Z,12.7
2017-11-05T05:11:40.096Z,12.71
2017-11-05T05:12:20.478Z,12.62
2017-11-05T05:13:00.874Z,12.74
2017-11-05T05:13:41.657Z,12.61
2017-11-05T05:14:22.066Z,12.67
2017-11-05T05:15:02.402Z,12.67
2017-11-05T05:15:42.868Z,12.61
2017-11-05T05:16:23.426Z,12.56
2017-11-05T05:17:03.623Z,12.63
2017-11-05T05:17:44.234Z,12.55
2017-11-05T05:18:25.477Z,12.59
2017-11-05T05:19:06.594Z,12.66
2017-11-05T05:19:47.399Z,12.58
2017-11-05T05:20:28.508Z,12.56
2017-11-05T05:21:08.917Z,12.48
2017-11-05T05:21:49.649Z,12.44
2017-11-05T05:22:30.020Z,12.43
2017-11-05T05:23:10.558Z,12.38
2017-11-05T05:23:50.943Z,12.36
2017-11-05T05:24:31.422Z,12.4
2017-11-05T05:25:11.849Z,12.51
2017-11-05T05:25:52.560Z,12.44
2017-11-05T05:26:33.215Z,12.49
2017-11-05T05:27:13.452Z,12.52
2017-11-05T05:27:53.872Z,12.46
2017-11-05T05:28:34.278Z,12.46
2017-11-05T05:29:15.368Z,12.41
2017-11-05T05:29:55.871Z,12.44
2017-11-05T05:30:36.245Z,12.43
2017-11-05T05:31:16.562Z,12.48
2017-11-05T05:31:57.027Z,12.44
2017-11-05T05:32:37.373Z,12.4
2017-11-05T05:33:17.799Z,12.41
2017-11-05T05:33:58.701Z,12.44
2017-11-05T05:34:39.856Z,12.44
2017-11-05T05:35:20.984Z,12.33
2017-11-05T05:36:01.418Z,12.4
2017-11-05T05:36:42.136Z,12.41
2017-11-05T05:37:23.022Z,12.37
2017-11-05T05:38:04.375Z,12.33
2017-11-05T05:38:44.803Z,12.37
2017-11-05T05:39:25.238Z,12.4
2017-11-05T05:40:05.753Z,12.38
2017-11-05T05:40:46.063Z,12.43
2017-11-05T05:41:26.490Z,12.41
2017-11-05T05:42:06.932Z,12.29
2017-11-05T05:42:47.394Z,12.34
2017-11-05T05:43:27.803Z,12.33
2017-11-05T05:44:08.443Z,12.34
2017-11-05T05:44:49.051Z,12.33
2017-11-05T05:45:29.339Z,12.33
2017-11-05T05:46:09.678Z,12.25
2017-11-05T05:46:50.212Z,12.18
2017-11-05T05:47:30.825Z,12.04
2017-11-05T05:48:11.575Z,12.08
2017-11-05T05:48:52.053Z,12.12
2017-11-05T05:49:32.405Z,11.97
2017-11-05T05:50:12.869Z,12.15
2017-11-05T05:50:53.279Z,12.13
2017-11-05T05:51:33.770Z,12.04
2017-11-05T05:52:14.324Z,11.98
2017-11-05T05:52:54.864Z,12.11
2017-11-05T05:53:35.348Z,11.97
2017-11-05T05:54:15.882Z,12.08
2017-11-05T05:54:56.195Z,12.08
2017-11-05T05:55:36.592Z,12.18
2017-11-05T05:56:17.022Z,12.15
2017-11-05T05:56:57.387Z,12.15
2017-11-05T05:57:37.959Z,12.15
2017-11-05T05:58:18.291Z,12.12
2017-11-05T05:58:58.903Z,12.15
2017-11-05T05:59:39.282Z,12.13
2017-11-05T06:00:20.149Z,12.11
2017-11-05T06:01:00.621Z,12.11
2017-11-05T06:01:41.379Z,12.15
2017-11-05T06:02:21.730Z,12.13
2017-11-05T06:03:02.174Z,12.08
2017-11-05T06:03:42.724Z,12.11
2017-11-05T06:04:23.386Z,12.05
2017-11-05T06:05:03.894Z,12.07
2017-11-05T06:05:44.336Z,12
2017-11-05T06:06:24.973Z,12.07
2017-11-05T06:07:05.301Z,12.07
2017-11-05T06:07:45.789Z,12.04
2017-11-05T06:08:26.218Z,12.11
2017-11-05T06:09:06.752Z,12.13
2017-11-05T06:09:47.127Z,12.15
2017-11-05T06:10:27.563Z,11.98
2017-11-05T06:11:08.060Z,12.13
2017-11-05T06:11:48.690Z,12.13
2017-11-05T06:12:29.152Z,12.13
2017-11-05T06:13:10.338Z,12.13
2017-11-05T06:13:51.031Z,12.15
2017-11-05T06:14:31.405Z,12.16
2017-11-05T06:15:11.880Z,12.12
2017-11-05T06:15:52.200Z,12.25
2017-11-05T06:16:32.673Z,12.25
2017-11-05T06:17:13.097Z,12.3
2017-11-05T06:17:53.676Z,12.31
2017-11-05T06:18:33.969Z,12.34
2017-11-05T06:19:14.319Z,12.33
2017-11-05T06:19:54.754Z,12.36
2017-11-05T06:20:35.217Z,12.37
2017-11-05T06:21:15.585Z,12.34
2017-11-05T06:21:56.068Z,12.26
2017-11-05T06:22:36.464Z,12.19
2017-11-05T06:23:17.303Z,12.12
2017-11-05T06:23:57.664Z,12.08
2017-11-05T06:24:38.016Z,12.03
2017-11-05T06:25:18.678Z,12.11
2017-11-05T06:25:59.054Z,12.08
2017-11-05T06:26:39.693Z,12.01
2017-11-05T06:27:20.252Z,12.05
2017-11-05T06:28:00.722Z,11.96
2017-11-05T06:28:41.102Z,12.01
2017-11-05T06:29:21.623Z,11.96
2017-11-05T06:30:02.119Z,12
2017-11-05T06:30:42.538Z,11.97
2017-11-05T06:31:22.947Z,11.93
2017-11-05T06:32:03.593Z,11.98
2017-11-05T06:32:44.116Z,11.97
2017-11-05T06:33:24.472Z,12.04
2017-11-05T06:34:05.236Z,12.07
2017-11-05T06:34:45.608Z,11.98
2017-11-05T06:35:26.047Z,12.07
2017-11-05T06:36:06.482Z,12.12
2017-11-05T06:36:46.898Z,12.07
2017-11-05T06:37:27.363Z,12.08
2017-11-05T06:38:07.834Z,12.03
2017-11-05T06:38:48.256Z,11.97
2017-11-05T06:39:28.594Z,12.04
2017-11-05T06:40:09.032Z,11.97
2017-11-05T06:40:49.517Z,11.98
2017-11-05T06:41:30.037Z,11.98
2017-11-05T06:42:10.470Z,12
2017-11-05T06:42:50.821Z,11.96
2017-11-05T06:43:31.193Z,11.96
2017-11-05T06:44:11.641Z,11.88
2017-11-05T06:44:52.125Z,12.05
2017-11-05T06:45:32.603Z,11.93
2017-11-05T06:46:12.872Z,11.98
2017-11-05T06:46:53.271Z,12.01
2017-11-05T06:47:33.666Z,11.98
2017-11-05T06:48:14.112Z,11.96
2017-11-05T06:48:54.432Z,11.93
2017-11-05T06:49:34.905Z,12
2017-11-05T06:50:15.382Z,12.01
2017-11-05T06:50:55.988Z,11.9
2017-11-05T06:51:36.219Z,12.01
2017-11-05T06:52:16.726Z,11.98
2017-11-05T06:52:57.192Z,12.05
2017-11-05T06:53:37.575Z,12.05
2017-11-05T06:54:18.540Z,12.13
2017-11-05T06:54:58.898Z,12.04
2017-11-05T06:55:39.305Z,12.13
2017-11-05T06:56:19.704Z,12.05
2017-11-05T06:57:00.136Z,12.11
2017-11-05T06:57:41.650Z,12.03
2017-11-05T06:58:21.954Z,12.11
2017-11-05T06:59:02.604Z,12.11
2017-11-05T06:59:43.099Z,12.04
2017-11-05T07:00:23.642Z,12.04
2017-11-05T07:01:05.032Z,12.13
2017-11-05T07:01:45.577Z,12.11
2017-11-05T07:02:26.198Z,12.08
2017-11-05T07:03:06.386Z,12.12
2017-11-05T07:03:46.880Z,12.16
2017-11-05T07:04:27.220Z,12.13
2017-11-05T07:05:07.520Z,12.07
2017-11-05T07:05:47.944Z,12.05
2017-11-05T07:06:28.387Z,12.12
2017-11-05T07:07:08.934Z,12.07
2017-11-05T07:07:49.240Z,12.03
2017-11-05T07:08:29.585Z,12.04
2017-11-05T07:09:10.091Z,12.05
2017-11-05T07:09:50.449Z,12.08
2017-11-05T07:10:31.054Z,12.12
2017-11-05T07:11:11.346Z,12
2017-11-05T07:11:51.822Z,12.03
2017-11-05T07:12:32.221Z,12.15
2017-11-05T07:13:12.628Z,12.12
2017-11-05T07:13:53.345Z,12.11
2017-11-05T07:14:34.255Z,12.12
2017-11-05T07:15:14.507Z,12.15
2017-11-05T07:15:55.567Z,12.15
2017-11-05T07:16:35.939Z,12.16
2017-11-05T07:17:16.474Z,12.16
2017-11-05T07:17:56.954Z,12.26
2017-11-05T07:18:37.405Z,12.16
2017-11-05T07:19:17.951Z,12.13
2017-11-05T07:19:58.464Z,12.15
2017-11-05T07:20:39.510Z,12.01
2017-11-05T07:21:19.910Z,12.11
2017-11-05T07:22:00.268Z,12.11
2017-11-05T07:22:40.761Z,12.11
2017-11-05T07:23:21.613Z,12.07
2017-11-05T07:24:02.207Z,12.08
2017-11-05T07:24:42.529Z,12.08
2017-11-05T07:25:23.005Z,12.07
2017-11-05T07:26:03.575Z,12.11
2017-11-05T07:26:43.996Z,12.11
2017-11-05T07:27:24.468Z,12.07
2017-11-05T07:28:04.881Z,11.94
2017-11-05T07:28:45.257Z,12.05
2017-11-05T07:29:25.642Z,11.93
2017-11-05T07:30:06.396Z,12.08
2017-11-05T07:30:46.780Z,12.11
2017-11-05T07:31:27.149Z,12.08
2017-11-05T07:32:07.577Z,12.12
2017-11-05T07:32:48.009Z,12.04
2017-11-05T07:33:28.431Z,12.12
2017-11-05T07:34:09.022Z,12.15
2017-11-05T07:34:49.421Z,12.12
2017-11-05T07:35:29.831Z,12.16
2017-11-05T07:36:10.132Z,12.03
2017-11-05T07:36:50.755Z,12
2017-11-05T07:37:31.168Z,12.11
2017-11-05T07:38:11.578Z,12.03
2017-11-05T07:38:52.065Z,12.13
2017-11-05T07:39:33.540Z,12.11
2017-11-05T07:40:14.051Z,12.04
2017-11-05T07:40:54.431Z,12.11
2017-11-05T07:41:34.837Z,12.13
2017-11-05T07:42:15.812Z,12.29
2017-11-05T07:42:56.041Z,12.18
2017-11-05T07:43:36.261Z,12.25
2017-11-05T07:44:17.056Z,12.21
2017-11-05T07:44:57.731Z,12.19
2017-11-05T07:45:38.185Z,12.15
2017-11-05T07:46:18.775Z,12.18
2017-11-05T07:47:00.185Z,12.12
2017-11-05T07:47:40.864Z,12.15
2017-11-05T07:48:21.312Z,12.12
2017-11-05T07:49:01.695Z,12.05
2017-11-05T07:49:42.265Z,11.97
2017-11-05T07:50:22.592Z,11.81
2017-11-05T07:51:03.092Z,11.78
2017-11-05T07:51:43.521Z,11.66
2017-11-05T07:52:24.041Z,11.49
2017-11-05T07:53:04.872Z,11.35
2017-11-05T07:53:45.269Z,11.31
2017-11-05T07:54:26.259Z,11.28
2017-11-05T07:55:06.834Z,11.21
2017-11-05T07:55:47.286Z,11.21
2017-11-05T07:56:27.779Z,11.11
2017-11-05T07:57:08.151Z,11.19
2017-11-05T07:57:48.701Z,11.06
2017-11-05T07:58:29.102Z,11.12
2017-11-05T07:59:09.469Z,11.09
2017-11-05T07:59:49.930Z,11.11
2017-11-05T08:00:30.353Z,11.08
2017-11-05T08:01:10.836Z,11.13
2017-11-05T08:01:52.346Z,11.19
2017-11-05T08:02:32.780Z,11.19
2017-11-05T08:03:14.485Z,11.21
2017-11-05T08:03:54.945Z,11.12
2017-11-05T08:04:35.341Z,11.13
2017-11-05T08:05:15.746Z,11.03
2017-11-05T08:05:56.113Z,11.13
2017-11-05T08:06:36.575Z,11.2
2017-11-05T08:07:17.083Z,11.17
2017-11-05T08:07:57.548Z,11.21
2017-11-05T08:08:38.460Z,11.2
2017-11-05T08:09:18.750Z,11.23
2017-11-05T08:09:59.158Z,11.27
2017-11-05T08:10:39.668Z,11.28
2017-11-05T08:11:20.031Z,11.26
2017-11-05T08:14:06.134Z,11.24
2017-11-05T08:14:59.165Z,11.19
2017-11-05T08:15:51.336Z,11.17
2017-11-05T08:16:44.625Z,11.17
2017-11-05T08:17:36.828Z,11.21
2017-11-05T08:18:29.378Z,11.23
2017-11-05T08:19:24.350Z,11.24
2017-11-05T08:20:17.209Z,11.19
2017-11-05T08:21:11.019Z,11.21
2017-11-05T08:22:03.933Z,11.28
2017-11-05T08:22:55.991Z,11.31
2017-11-05T08:23:50.125Z,11.54
2017-11-05T08:24:44.274Z,11.45
2017-11-05T08:25:38.757Z,11.49
2017-11-05T08:26:30.866Z,11.49
2017-11-05T08:27:22.820Z,11.51
2017-11-05T08:28:15.066Z,11.57
2017-11-05T08:29:07.629Z,11.62
2017-11-05T08:29:59.749Z,11.62
2017-11-05T08:30:51.957Z,11.57
2017-11-05T08:31:43.955Z,11.62
2017-11-05T08:32:37.213Z,11.67
2017-11-05T08:33:30.132Z,11.74
2017-11-05T08:34:22.748Z,11.77
2017-11-05T08:35:16.037Z,11.74
2017-11-05T08:36:09.634Z,11.81
2017-11-05T08:37:03.000Z,11.82
2017-11-05T08:37:55.393Z,11.81
2017-11-05T08:38:47.690Z,11.85
2017-11-05T08:39:40.205Z,12.01
2017-11-05T08:40:33.066Z,11.9
2017-11-05T08:41:26.858Z,11.9
2017-11-05T08:42:20.292Z,11.94
2017-11-05T08:43:12.805Z,11.9
2017-11-05T08:44:05.216Z,11.97
2017-11-05T08:45:02.608Z,11.96
2017-11-05T08:45:59.337Z,12.03
2017-11-05T08:46:56.368Z,12
2017-11-05T08:47:48.692Z,11.93
2017-11-05T08:48:41.289Z,12.03
2017-11-05T08:49:33.351Z,12.04
2017-11-05T08:50:25.836Z,12.04
2017-11-05T08:51:18.604Z,12.01
2017-11-05T08:52:11.091Z,11.96
2017-11-05T08:53:05.096Z,12.03
2017-11-05T08:53:57.678Z,12.01
2017-11-05T08:54:49.914Z,12.08
2017-11-05T08:55:42.054Z,11.9
2017-11-05T08:56:34.735Z,12.03
2017-11-05T08:57:27.019Z,12
2017-11-05T08:58:19.604Z,12
2017-11-05T08:59:11.876Z,11.98
2017-11-05T09:00:04.030Z,11.88
2017-11-05T09:00:56.874Z,11.85
2017-11-05T09:01:49.344Z,11.87
2017-11-05T09:02:41.577Z,11.97
2017-11-05T09:03:33.763Z,11.93
2017-11-05T09:04:26.743Z,12
2017-11-05T09:05:20.199Z,12.07
2017-11-05T09:07:46.211Z,11.93
2017-11-05T09:08:38.550Z,11.97
2017-11-05T09:09:31.692Z,12.11
2017-11-05T09:10:24.207Z,12.15
2017-11-05T09:11:16.768Z,12.21
2017-11-05T09:12:08.970Z,12.26
2017-11-05T09:13:02.130Z,12.21
2017-11-05T09:13:54.119Z,12.34
2017-11-05T09:14:47.707Z,12.29
2017-11-05T09:15:39.918Z,12.31
2017-11-05T09:16:33.644Z,12.25
2017-11-05T09:17:26.761Z,12.22
2017-11-05T09:18:19.015Z,12.26
2017-11-05T09:19:12.254Z,12.21
2017-11-05T09:20:06.311Z,12.33
2017-11-05T09:20:58.446Z,12.21
2017-11-05T09:21:51.825Z,12.36
2017-11-05T09:22:44.184Z,12.36
2017-11-05T09:23:36.622Z,12.34
2017-11-05T09:24:29.677Z,12.3
2017-11-05T09:25:21.883Z,12.36
2017-11-05T09:26:13.732Z,12.43
2017-11-05T09:27:07.104Z,12.43
2017-11-05T09:27:59.478Z,12.46
2017-11-05T09:28:52.007Z,12.43
2017-11-05T09:29:44.454Z,12.44
2017-11-05T09:30:37.525Z,12.4
2017-11-05T09:31:29.980Z,12.41
2017-11-05T09:32:21.991Z,12.43
2017-11-05T09:33:14.187Z,12.34
2017-11-05T09:34:04.407Z,12.34
2017-11-05T09:35:46.812Z,12.37
2017-11-05T09:36:39.844Z,12.46
2017-11-05T09:37:32.188Z,12.4
2017-11-05T09:38:25.108Z,12.4
2017-11-05T09:39:17.307Z,12.48
2017-11-05T09:40:09.732Z,12.46
2017-11-05T09:41:01.857Z,12.44
2017-11-05T09:41:54.209Z,12.58
2017-11-05T09:42:46.806Z,12.58
2017-11-05T09:43:38.751Z,12.7
2017-11-05T09:44:31.705Z,12.56
2017-11-05T09:45:25.039Z,12.62
2017-11-05T09:46:17.253Z,12.7